Terminal Aerodrome Forecast
Issued by NWS

Home | Current Version | Previous Version | Text Only | Print | Product List | Glossary On
Versions: 1 2 3 4 5 6 7 8 9 10 11 12 13 14 15 16 17
000
FTUS43 KMPX 031945 AAA
TAFAXN
TAF AMD
KAXN 031945Z 0320/0418 31022G32KT 5SM BLSN BKN015 BKN025
      TEMPO 0320/0322 2SM BLSN
     FM032200 31020G26KT P6SM SCT020
     FM040100 30016G25KT P6SM SKC
     FM040600 30012KT P6SM SKC=

USA.gov is the U.S. government's official web portal to all federal, state and local government web resources and services.